Time;durP1;ratioP1;P1;durP2;ratioP2;P2;SDS_P1;SDS_P2;PMS_P1;PMS_P2;Temp;Humidity;BMP_temperature;BMP_pressure;BME280_temperature;BME280_humidity;BME280_pressure;Samples;Min_cycle;Max_cycle;Signal;HPM_P1;HPM_P2
2022/12/30 00:02:25;;;;;;;;;;;11.00;99.90;;;;;;5101352;28;19926;-63
2022/12/30 00:04:51;;;;;;;;;;;11.00;99.90;;;;;;5120627;28;19912;-63
2022/12/30 00:07:18;;;;;;;;;;;11.10;99.90;;;;;;5120169;28;20374;-63
2022/12/30 00:09:43;;;;;;;;;;;11.10;99.90;;;;;;5120107;28;19915;-63
2022/12/30 00:34:27;;;;;;;;;;;11.20;99.90;;;;;;5119990;28;20274;-63
2022/12/30 00:36:53;;;;;;;;;;;11.20;99.90;;;;;;5119766;28;19949;-63
2022/12/30 00:39:18;;;;;;;;;;;11.20;99.90;;;;;;5119622;28;19908;-63
2022/12/30 00:44:28;;;;;;;;;;;11.30;99.90;;;;;;5119308;28;19915;-63
2022/12/30 00:46:55;;;;;;;;;;;11.30;99.90;;;;;;5119350;28;19912;-63
2022/12/30 00:57:34;;;;;;;;;;;11.30;99.90;;;;;;5119579;28;19918;-63
2022/12/30 00:59:59;;;;;;;;;;;11.30;99.90;;;;;;5119368;28;19907;-63
2022/12/30 01:02:25;;;;;;;;;;;11.40;99.90;;;;;;5118956;28;19930;-63
2022/12/30 01:04:51;;;;;;;;;;;11.40;99.90;;;;;;5119153;28;19944;-63
2022/12/30 01:07:16;;;;;;;;;;;11.30;99.90;;;;;;5119343;28;20384;-63
2022/12/30 01:09:42;;;;;;;;;;;11.30;99.90;;;;;;5119006;28;20278;-63
2022/12/30 01:12:08;;;;;;;;;;;11.30;99.90;;;;;;5119228;28;19907;-62
2022/12/30 01:14:34;;;;;;;;;;;11.30;99.90;;;;;;5118952;28;19916;-63
2022/12/30 01:16:59;;;;;;;;;;;11.30;99.90;;;;;;5118903;28;19911;-62
2022/12/30 01:19:25;;;;;;;;;;;11.30;99.90;;;;;;5119104;28;19914;-63
2022/12/30 01:21:51;;;;;;;;;;;11.30;99.90;;;;;;5119168;28;19908;-63
2022/12/30 01:24:16;;;;;;;;;;;11.40;99.90;;;;;;5118988;28;19908;-62
2022/12/30 01:26:42;;;;;;;;;;;11.40;99.90;;;;;;5119626;28;19914;-63
2022/12/30 01:29:07;;;;;;;;;;;11.40;99.90;;;;;;5118349;28;19998;-63
2022/12/30 01:31:33;;;;;;;;;;;11.40;99.90;;;;;;5118250;28;19958;-62
2022/12/30 01:33:59;;;;;;;;;;;11.40;99.90;;;;;;5119222;28;19998;-63
2022/12/30 01:36:25;;;;;;;;;;;11.40;99.90;;;;;;5118771;28;19912;-63
2022/12/30 01:38:50;;;;;;;;;;;11.40;99.90;;;;;;5118850;28;19908;-63
2022/12/30 01:41:16;;;;;;;;;;;11.40;99.90;;;;;;5118741;28;19908;-62
2022/12/30 01:43:43;;;;;;;;;;;11.50;99.90;;;;;;5118588;28;19908;-63
2022/12/30 01:46:11;;;;;;;;;;;11.50;99.90;;;;;;5118601;28;19908;-63
2022/12/30 01:48:37;;;;;;;;;;;11.50;99.90;;;;;;5118578;28;19936;-63
2022/12/30 01:51:27;;;;;;;;;;;11.50;99.90;;;;;;5118920;28;19912;-63
2022/12/30 01:53:53;;;;;;;;;;;11.50;99.90;;;;;;5110391;28;19947;-62
2022/12/30 01:56:38;;;;;;;;;;;11.50;99.90;;;;;;5118186;28;20362;-63
2022/12/30 01:59:06;;;;;;;;;;;11.50;99.90;;;;;;5100150;28;19915;-63
2022/12/30 02:01:33;;;;;;;;;;;11.50;99.90;;;;;;5118044;28;19928;-63
2022/12/30 02:04:01;;;;;;;;;;;11.50;99.90;;;;;;5118295;28;19935;-62
2022/12/30 02:06:45;;;;;;;;;;;11.40;99.90;;;;;;5118567;28;20262;-62
2022/12/30 02:09:10;;;;;;;;;;;11.40;99.90;;;;;;5118272;28;20453;-61
2022/12/30 02:11:36;;;;;;;;;;;11.30;99.90;;;;;;5118592;28;19908;-59
2022/12/30 02:14:02;;;;;;;;;;;11.30;99.90;;;;;;5118534;28;19908;-59
2022/12/30 02:16:41;;;;;;;;;;;11.20;99.90;;;;;;5118447;28;19912;-59
2022/12/30 02:19:09;;;;;;;;;;;11.20;99.90;;;;;;5118051;28;19915;-54
2022/12/30 02:21:53;;;;;;;;;;;11.10;99.90;;;;;;5118489;28;19973;-58
2022/12/30 02:24:27;;;;;;;;;;;11.10;99.90;;;;;;5118451;28;19908;-52
2022/12/30 02:27:04;;;;;;;;;;;11.00;99.90;;;;;;5118429;28;20337;-52
2022/12/30 02:29:29;;;;;;;;;;;11.00;99.90;;;;;;5118378;28;19912;-52
2022/12/30 02:32:15;;;;;;;;;;;11.00;99.90;;;;;;5118370;28;20385;-53
2022/12/30 02:34:50;;;;;;;;;;;10.90;99.90;;;;;;5117606;28;19907;-51
2022/12/30 02:37:19;;;;;;;;;;;10.90;99.90;;;;;;5117967;28;19912;-50
2022/12/30 02:39:53;;;;;;;;;;;10.90;99.90;;;;;;5118295;28;20286;-51
2022/12/30 02:45:21;;;;;;;;;;;10.90;99.90;;;;;;5122058;28;20073;-49
2022/12/30 02:47:51;;;;;;;;;;;10.90;99.90;;;;;;5121714;28;20001;-51
2022/12/30 02:53:08;;;;;;;;;;;10.80;99.90;;;;;;5121971;28;19915;-50
2022/12/30 02:55:34;;;;;;;;;;;10.90;99.90;;;;;;5121734;28;19915;-52
2022/12/30 02:58:00;;;;;;;;;;;10.90;99.90;;;;;;5121771;28;19914;-51
2022/12/30 03:06:19;;;;;;;;;;;10.80;99.90;;;;;;5121686;28;19914;-51
2022/12/30 03:09:03;;;;;;;;;;;10.80;99.90;;;;;;5121299;28;19953;-52
2022/12/30 03:11:32;;;;;;;;;;;10.70;99.90;;;;;;5121318;28;19908;-50
2022/12/30 03:14:17;;;;;;;;;;;10.70;99.90;;;;;;5121244;28;19908;-54
2022/12/30 03:16:45;;;;;;;;;;;10.70;99.90;;;;;;5121472;28;19911;-53
2022/12/30 03:19:32;;;;;;;;;;;10.70;99.90;;;;;;5121418;28;20007;-52
2022/12/30 03:21:59;;;;;;;;;;;10.70;99.90;;;;;;5121162;28;19908;-51
2022/12/30 03:27:28;;;;;;;;;;;10.70;99.90;;;;;;5078171;28;19909;-51
2022/12/30 03:29:56;;;;;;;;;;;10.60;99.90;;;;;;5111918;28;19915;-50
2022/12/30 03:32:22;;;;;;;;;;;10.70;99.90;;;;;;5121093;28;19908;-51
2022/12/30 03:34:48;;;;;;;;;;;10.60;99.90;;;;;;5121182;28;20367;-50
2022/12/30 03:37:17;;;;;;;;;;;10.60;99.90;;;;;;5120953;28;20396;-51
2022/12/30 03:39:48;;;;;;;;;;;10.70;99.90;;;;;;5120927;28;19934;-50
2022/12/30 03:42:14;;;;;;;;;;;10.70;99.90;;;;;;5120947;28;19908;-50
2022/12/30 03:44:41;;;;;;;;;;;10.80;99.90;;;;;;5120842;28;19915;-51
2022/12/30 03:47:12;;;;;;;;;;;10.80;99.90;;;;;;5120788;28;19908;-51
2022/12/30 03:49:40;;;;;;;;;;;10.90;99.90;;;;;;5120562;28;20274;-50
2022/12/30 03:52:06;;;;;;;;;;;10.90;99.90;;;;;;5120227;28;20283;-50
2022/12/30 03:54:32;;;;;;;;;;;10.90;99.90;;;;;;5120035;28;19930;-52
2022/12/30 03:56:57;;;;;;;;;;;11.00;99.90;;;;;;5120270;28;20393;-50
2022/12/30 03:59:23;;;;;;;;;;;11.00;99.90;;;;;;5120586;28;19907;-50
2022/12/30 04:01:48;;;;;;;;;;;11.10;99.90;;;;;;5120176;28;19949;-50
2022/12/30 04:04:14;;;;;;;;;;;11.10;99.90;;;;;;5120243;28;19908;-50
2022/12/30 04:06:40;;;;;;;;;;;11.00;99.90;;;;;;5120357;28;19958;-50
2022/12/30 04:09:05;;;;;;;;;;;11.00;99.90;;;;;;5120353;28;19991;-50
2022/12/30 04:11:31;;;;;;;;;;;11.10;99.90;;;;;;5120181;28;19908;-50
2022/12/30 04:13:56;;;;;;;;;;;11.10;99.90;;;;;;5120037;28;19912;-49
2022/12/30 04:16:22;;;;;;;;;;;11.00;99.90;;;;;;5120255;28;19912;-48
2022/12/30 04:18:48;;;;;;;;;;;11.10;99.90;;;;;;5119916;28;19915;-49
2022/12/30 04:21:13;;;;;;;;;;;11.10;99.90;;;;;;5120183;28;19908;-51
2022/12/30 04:23:39;;;;;;;;;;;11.20;99.90;;;;;;5119845;28;20053;-49
2022/12/30 04:26:05;;;;;;;;;;;11.20;99.90;;;;;;5120158;28;19911;-48
2022/12/30 04:28:30;;;;;;;;;;;11.20;99.90;;;;;;5119985;28;19915;-48
2022/12/30 04:30:56;;;;;;;;;;;11.10;99.90;;;;;;5119759;28;19912;-50
2022/12/30 04:33:21;;;;;;;;;;;11.00;99.90;;;;;;5119649;28;19908;-49
2022/12/30 04:35:47;;;;;;;;;;;10.90;99.90;;;;;;5119795;28;19946;-49
2022/12/30 04:38:13;;;;;;;;;;;11.00;99.90;;;;;;5119569;28;20350;-50
2022/12/30 04:40:38;;;;;;;;;;;11.00;99.90;;;;;;5119757;28;19911;-48
2022/12/30 04:43:04;;;;;;;;;;;11.10;99.90;;;;;;5119681;28;19911;-48
2022/12/30 04:45:29;;;;;;;;;;;11.10;99.90;;;;;;5119513;28;19960;-49
2022/12/30 04:47:55;;;;;;;;;;;11.10;99.90;;;;;;5119559;28;19909;-48
2022/12/30 04:50:21;;;;;;;;;;;11.10;99.90;;;;;;5119949;28;19914;-49
2022/12/30 04:52:46;;;;;;;;;;;11.10;99.90;;;;;;5119305;28;19908;-49
2022/12/30 04:55:12;;;;;;;;;;;11.20;99.90;;;;;;5119233;28;19948;-48
2022/12/30 04:57:37;;;;;;;;;;;11.20;99.90;;;;;;5119348;28;19961;-49
2022/12/30 05:00:05;;;;;;;;;;;11.20;99.90;;;;;;5119351;28;19908;-49
2022/12/30 05:02:30;;;;;;;;;;;11.30;99.90;;;;;;5096938;28;19998;-48
2022/12/30 05:04:56;;;;;;;;;;;11.30;99.90;;;;;;5098692;28;19954;-49
2022/12/30 05:07:22;;;;;;;;;;;11.30;99.90;;;;;;5098673;28;19908;-52
2022/12/30 05:09:48;;;;;;;;;;;11.30;99.90;;;;;;5098741;28;19908;-48
2022/12/30 05:12:14;;;;;;;;;;;11.30;99.90;;;;;;5099087;28;20280;-48
2022/12/30 05:14:40;;;;;;;;;;;11.30;99.90;;;;;;5098590;28;20329;-47
2022/12/30 05:17:05;;;;;;;;;;;11.30;99.90;;;;;;5099188;28;19912;-48
2022/12/30 05:19:31;;;;;;;;;;;11.30;99.90;;;;;;5098602;28;19938;-48
2022/12/30 05:21:56;;;;;;;;;;;11.40;99.90;;;;;;5098716;28;19912;-47
2022/12/30 05:27:06;;;;;;;;;;;11.50;99.90;;;;;;5098530;28;19946;-47
2022/12/30 05:29:32;;;;;;;;;;;11.60;99.90;;;;;;5098905;28;19908;-47
2022/12/30 05:31:57;;;;;;;;;;;11.60;99.90;;;;;;5098432;28;19908;-47
2022/12/30 05:34:23;;;;;;;;;;;11.70;99.90;;;;;;5097665;28;20390;-47
2022/12/30 05:36:49;;;;;;;;;;;11.70;99.90;;;;;;5098279;28;19912;-49
2022/12/30 05:39:14;;;;;;;;;;;11.80;99.90;;;;;;5098511;28;20386;-48
2022/12/30 05:41:40;;;;;;;;;;;11.90;99.90;;;;;;5098313;28;19969;-47
2022/12/30 05:44:06;;;;;;;;;;;12.00;99.90;;;;;;5098755;28;19963;-47
2022/12/30 05:46:31;;;;;;;;;;;12.00;99.90;;;;;;5098247;28;19908;-46
2022/12/30 05:48:57;;;;;;;;;;;12.00;99.90;;;;;;5098243;28;19908;-48
2022/12/30 05:51:23;;;;;;;;;;;12.00;99.90;;;;;;5097865;28;19962;-50
2022/12/30 05:53:48;;;;;;;;;;;12.10;99.90;;;;;;5098124;28;19912;-49
2022/12/30 05:56:14;;;;;;;;;;;12.10;99.90;;;;;;5097872;28;19912;-47
2022/12/30 05:58:40;;;;;;;;;;;12.10;99.90;;;;;;5098368;28;19931;-48
2022/12/30 06:01:06;;;;;;;;;;;12.20;99.90;;;;;;5099855;28;20359;-48
2022/12/30 06:03:32;;;;;;;;;;;12.20;99.90;;;;;;5118316;28;19907;-49
2022/12/30 06:06:02;;;;;;;;;;;12.30;99.90;;;;;;5118197;28;19908;-49
2022/12/30 06:08:27;;;;;;;;;;;12.30;99.90;;;;;;5118406;28;20311;-48
2022/12/30 06:10:53;;;;;;;;;;;12.40;99.90;;;;;;5118108;28;19908;-48
2022/12/30 06:13:20;;;;;;;;;;;12.40;99.90;;;;;;5117570;28;20147;-46
2022/12/30 06:15:46;;;;;;;;;;;12.40;99.90;;;;;;5118094;28;19912;-47
2022/12/30 06:18:12;;;;;;;;;;;12.40;99.90;;;;;;5122040;28;19912;-47
2022/12/30 06:20:38;;;;;;;;;;;12.50;99.90;;;;;;5122475;28;19970;-47
2022/12/30 06:23:04;;;;;;;;;;;12.50;99.90;;;;;;5121981;28;19994;-49
2022/12/30 06:25:31;;;;;;;;;;;12.50;99.90;;;;;;5122449;28;19929;-47
2022/12/30 06:27:57;;;;;;;;;;;12.50;99.90;;;;;;5103775;28;19986;-48
2022/12/30 06:30:23;;;;;;;;;;;12.50;99.90;;;;;;5122055;28;19935;-47
2022/12/30 06:32:48;;;;;;;;;;;12.60;99.90;;;;;;5122234;28;19915;-48
2022/12/30 06:35:14;;;;;;;;;;;12.60;99.90;;;;;;5121701;28;19908;-49
2022/12/30 06:37:39;;;;;;;;;;;12.60;99.90;;;;;;5122177;28;19911;-49
2022/12/30 06:40:06;;;;;;;;;;;12.60;99.90;;;;;;5121660;28;20435;-49
2022/12/30 06:42:31;;;;;;;;;;;12.70;99.90;;;;;;5121621;28;19908;-47
2022/12/30 06:44:57;;;;;;;;;;;12.70;99.90;;;;;;5121985;28;20018;-49
2022/12/30 06:47:23;;;;;;;;;;;12.70;99.90;;;;;;5121482;28;20014;-47
2022/12/30 06:49:48;;;;;;;;;;;12.70;99.90;;;;;;5121494;28;20311;-47
2022/12/30 06:52:14;;;;;;;;;;;12.80;99.90;;;;;;5121681;28;20068;-47
2022/12/30 06:54:40;;;;;;;;;;;12.80;99.90;;;;;;5121410;28;19915;-48
2022/12/30 06:57:05;;;;;;;;;;;12.80;99.90;;;;;;5121379;28;19944;-48
2022/12/30 06:59:31;;;;;;;;;;;12.80;99.90;;;;;;5121267;28;20294;-47
2022/12/30 07:01:57;;;;;;;;;;;12.80;99.90;;;;;;5121293;28;19967;-50
2022/12/30 07:04:22;;;;;;;;;;;12.80;99.90;;;;;;5121426;28;20286;-50
2022/12/30 07:06:48;;;;;;;;;;;12.80;99.90;;;;;;5121476;28;19919;-48
2022/12/30 07:09:14;;;;;;;;;;;12.80;99.90;;;;;;5121264;28;19908;-46
2022/12/30 07:11:40;;;;;;;;;;;12.80;99.90;;;;;;5120885;28;20293;-48
2022/12/30 07:14:05;;;;;;;;;;;12.80;99.90;;;;;;5121219;28;19908;-49
2022/12/30 07:16:31;;;;;;;;;;;12.80;99.90;;;;;;5121250;28;20006;-48
2022/12/30 07:18:56;;;;;;;;;;;12.80;99.90;;;;;;5121248;28;19912;-48
2022/12/30 07:21:22;;;;;;;;;;;12.80;99.90;;;;;;5121076;28;19907;-48
2022/12/30 07:23:48;;;;;;;;;;;12.80;99.90;;;;;;5120811;28;19908;-46
2022/12/30 07:26:13;;;;;;;;;;;12.80;99.90;;;;;;5120998;28;19907;-47
2022/12/30 07:28:39;;;;;;;;;;;12.90;99.90;;;;;;5119308;28;19915;-50
2022/12/30 07:31:04;;;;;;;;;;;12.80;99.90;;;;;;5120646;28;19912;-48
2022/12/30 07:33:30;;;;;;;;;;;12.90;99.90;;;;;;5120724;28;19907;-48
2022/12/30 07:35:55;;;;;;;;;;;12.90;99.90;;;;;;5120904;28;19960;-47
2022/12/30 07:38:21;;;;;;;;;;;12.90;99.90;;;;;;5120747;28;19907;-49
2022/12/30 07:40:47;;;;;;;;;;;12.90;99.90;;;;;;5120898;28;20374;-49
2022/12/30 07:43:13;;;;;;;;;;;12.90;99.90;;;;;;5120273;28;20281;-54
2022/12/30 07:45:39;;;;;;;;;;;12.90;99.90;;;;;;5120119;28;19908;-49
2022/12/30 07:48:04;;;;;;;;;;;12.90;99.90;;;;;;5120265;28;19912;-49
2022/12/30 07:50:30;;;;;;;;;;;12.90;99.90;;;;;;5120423;28;19911;-47
2022/12/30 07:52:56;;;;;;;;;;;12.90;99.90;;;;;;5120311;28;19998;-47
2022/12/30 07:55:21;;;;;;;;;;;12.90;99.90;;;;;;5120147;28;19947;-47
2022/12/30 07:57:47;;;;;;;;;;;12.90;99.90;;;;;;5120339;28;19944;-50
2022/12/30 08:00:13;;;;;;;;;;;12.90;99.90;;;;;;5120137;28;19916;-47
2022/12/30 08:02:39;;;;;;;;;;;12.90;99.90;;;;;;5119891;28;19927;-48
2022/12/30 08:05:06;;;;;;;;;;;12.90;99.90;;;;;;5119996;28;20460;-49
2022/12/30 08:07:31;;;;;;;;;;;12.90;99.90;;;;;;5120208;28;19908;-48
2022/12/30 08:09:57;;;;;;;;;;;12.90;99.90;;;;;;5119841;28;19908;-48
2022/12/30 08:12:22;;;;;;;;;;;12.90;99.90;;;;;;5119450;28;19908;-50
2022/12/30 08:14:48;;;;;;;;;;;12.90;99.90;;;;;;5119706;28;19915;-50
2022/12/30 08:17:14;;;;;;;;;;;12.90;99.90;;;;;;5119857;28;19912;-48
2022/12/30 08:19:39;;;;;;;;;;;13.00;99.90;;;;;;5119802;28;19952;-48
2022/12/30 08:22:05;;;;;;;;;;;13.00;99.90;;;;;;5119801;28;19912;-49
2022/12/30 08:24:30;;;;;;;;;;;13.00;99.90;;;;;;5119795;28;19972;-48
2022/12/30 08:26:56;;;;;;;;;;;13.00;99.90;;;;;;5118043;28;19912;-54
2022/12/30 08:29:22;;;;;;;;;;;13.00;99.90;;;;;;5118629;28;19915;-50
2022/12/30 08:31:49;;;;;;;;;;;13.00;99.90;;;;;;5119086;28;20017;-54
2022/12/30 08:34:17;;;;;;;;;;;13.00;99.90;;;;;;5118807;28;20357;-51
2022/12/30 08:36:43;;;;;;;;;;;13.00;99.90;;;;;;5118895;28;19911;-50
2022/12/30 08:39:09;;;;;;;;;;;13.00;99.90;;;;;;5118899;28;19908;-50
2022/12/30 08:41:35;;;;;;;;;;;13.00;99.90;;;;;;5119486;28;19946;-48
2022/12/30 08:44:01;;;;;;;;;;;13.00;99.90;;;;;;5119283;28;19943;-48
2022/12/30 08:46:28;;;;;;;;;;;13.00;99.90;;;;;;5119360;28;19908;-50
2022/12/30 08:48:54;;;;;;;;;;;13.00;99.90;;;;;;5118945;28;19908;-50
2022/12/30 08:51:20;;;;;;;;;;;13.00;99.90;;;;;;5119246;28;19914;-49
2022/12/30 08:53:46;;;;;;;;;;;13.10;99.90;;;;;;5118827;28;19915;-50
2022/12/30 08:56:11;;;;;;;;;;;13.10;99.90;;;;;;5118992;28;19912;-48
2022/12/30 08:58:37;;;;;;;;;;;13.10;99.90;;;;;;5118786;28;20354;-48
2022/12/30 09:01:06;;;;;;;;;;;13.10;99.90;;;;;;5118344;28;20003;-49
2022/12/30 09:03:32;;;;;;;;;;;13.10;99.90;;;;;;5118974;28;19911;-51
2022/12/30 09:05:58;;;;;;;;;;;13.10;99.90;;;;;;5118779;28;19941;-54
2022/12/30 09:08:23;;;;;;;;;;;13.10;99.90;;;;;;5118410;28;19931;-51
2022/12/30 09:10:59;;;;;;;;;;;13.00;99.90;;;;;;5118800;28;19908;-53
2022/12/30 09:13:24;;;;;;;;;;;13.10;99.90;;;;;;5118579;28;19908;-52
2022/12/30 09:15:50;;;;;;;;;;;13.10;99.90;;;;;;5118655;28;19919;-52
2022/12/30 09:18:16;;;;;;;;;;;13.10;99.90;;;;;;5118803;28;19976;-53
2022/12/30 09:20:41;;;;;;;;;;;13.10;99.90;;;;;;5118808;28;19908;-55
2022/12/30 09:23:07;;;;;;;;;;;13.10;99.90;;;;;;5119265;28;19915;-55
2022/12/30 09:25:32;;;;;;;;;;;13.10;99.90;;;;;;5118400;28;19907;-53
2022/12/30 09:27:58;;;;;;;;;;;13.10;99.90;;;;;;5118483;28;19912;-52
2022/12/30 09:30:24;;;;;;;;;;;13.10;99.90;;;;;;5118378;28;20354;-52
2022/12/30 09:32:49;;;;;;;;;;;13.10;99.90;;;;;;5118179;28;20347;-51
2022/12/30 09:35:15;;;;;;;;;;;13.10;99.90;;;;;;5118628;28;19931;-52
2022/12/30 09:37:41;;;;;;;;;;;13.10;99.90;;;;;;5118118;28;19959;-55
2022/12/30 09:40:10;;;;;;;;;;;13.10;99.90;;;;;;5118599;28;20006;-52
2022/12/30 09:45:26;;;;;;;;;;;13.10;99.90;;;;;;5118072;28;19930;-50
2022/12/30 09:47:54;;;;;;;;;;;13.10;99.90;;;;;;5118324;28;19933;-53
2022/12/30 09:50:38;;;;;;;;;;;13.10;99.90;;;;;;5117981;28;19908;-52
2022/12/30 09:53:04;;;;;;;;;;;13.10;99.90;;;;;;5122403;28;19908;-54
2022/12/30 09:55:32;;;;;;;;;;;13.10;99.90;;;;;;5122545;28;20273;-55
2022/12/30 09:58:01;;;;;;;;;;;13.20;99.90;;;;;;5122281;28;20281;-51
2022/12/30 10:00:29;;;;;;;;;;;13.20;99.90;;;;;;5122532;28;19908;-53
2022/12/30 10:03:13;;;;;;;;;;;13.20;99.90;;;;;;5103754;28;19927;-55
2022/12/30 10:06:06;;;;;;;;;;;13.20;99.90;;;;;;5121981;28;19961;-53
2022/12/30 10:08:36;;;;;;;;;;;13.20;99.90;;;;;;5097951;28;19907;-51
2022/12/30 10:11:02;;;;;;;;;;;13.20;99.90;;;;;;5122334;28;20377;-54
2022/12/30 10:13:34;;;;;;;;;;;13.20;99.90;;;;;;5122091;28;19943;-50
2022/12/30 10:16:35;;;;;;;;;;;13.20;99.90;;;;;;5122138;28;20369;-53
2022/12/30 10:19:08;;;;;;;;;;;13.20;99.90;;;;;;5059268;28;19948;-55
2022/12/30 10:21:34;;;;;;;;;;;13.20;99.90;;;;;;5112647;28;19947;-54
2022/12/30 10:23:59;;;;;;;;;;;13.30;99.90;;;;;;5121787;28;19914;-53
2022/12/30 10:26:43;;;;;;;;;;;13.30;99.90;;;;;;5121935;28;20049;-52
2022/12/30 10:29:14;;;;;;;;;;;13.20;99.90;;;;;;5121620;28;20374;-54
2022/12/30 10:31:41;;;;;;;;;;;13.20;99.90;;;;;;5121853;28;20285;-52
2022/12/30 10:34:17;;;;;;;;;;;13.20;99.90;;;;;;5121806;28;20288;-55
2022/12/30 10:36:58;;;;;;;;;;;13.20;99.90;;;;;;5121595;28;19912;-52
2022/12/30 10:39:34;;;;;;;;;;;13.20;99.90;;;;;;5103229;28;19915;-52
2022/12/30 10:42:15;;;;;;;;;;;13.20;99.90;;;;;;5121950;28;19907;-54
2022/12/30 10:44:56;;;;;;;;;;;13.20;99.90;;;;;;5102900;28;19911;-56
2022/12/30 10:47:57;;;;;;;;;;;13.20;99.90;;;;;;5121498;28;19955;-55
2022/12/30 10:50:34;;;;;;;;;;;13.20;99.90;;;;;;5058446;28;19915;-55
2022/12/30 10:53:01;;;;;;;;;;;13.20;99.90;;;;;;5113239;28;19961;-53
2022/12/30 10:55:29;;;;;;;;;;;13.20;99.90;;;;;;5121328;28;19960;-53
2022/12/30 10:58:01;;;;;;;;;;;13.20;99.90;;;;;;5121466;28;20448;-54
2022/12/30 11:00:28;;;;;;;;;;;13.20;99.90;;;;;;5121094;28;19912;-55
2022/12/30 11:02:56;;;;;;;;;;;13.20;99.90;;;;;;5120464;28;19919;-53
2022/12/30 11:05:32;;;;;;;;;;;13.20;99.90;;;;;;5120944;28;19908;-55
2022/12/30 11:07:59;;;;;;;;;;;13.20;99.90;;;;;;5120981;28;20275;-55
2022/12/30 11:10:25;;;;;;;;;;;13.20;99.90;;;;;;5121187;28;19961;-56
2022/12/30 11:15:50;;;;;;;;;;;13.20;99.90;;;;;;5120851;28;19943;-55
2022/12/30 11:18:16;;;;;;;;;;;13.20;99.90;;;;;;5121249;28;19977;-54
2022/12/30 11:20:42;;;;;;;;;;;13.20;99.90;;;;;;5120899;28;19978;-55
2022/12/30 11:23:23;;;;;;;;;;;13.20;99.90;;;;;;5120684;28;19984;-56
2022/12/30 11:25:48;;;;;;;;;;;13.30;99.90;;;;;;5102106;28;19908;-52
2022/12/30 11:28:19;;;;;;;;;;;13.30;99.90;;;;;;5120238;28;20247;-54
2022/12/30 11:31:06;;;;;;;;;;;13.30;99.90;;;;;;5120282;28;19908;-54
2022/12/30 11:33:34;;;;;;;;;;;13.30;99.90;;;;;;5119966;28;20361;-51
2022/12/30 11:36:10;;;;;;;;;;;13.30;99.90;;;;;;5120555;28;19926;-56
2022/12/30 11:38:37;;;;;;;;;;;13.40;99.90;;;;;;5120233;28;19962;-54
2022/12/30 11:41:18;;;;;;;;;;;13.40;99.90;;;;;;5120328;28;20398;-54
2022/12/30 11:43:44;;;;;;;;;;;13.40;99.90;;;;;;5120354;28;19915;-55
2022/12/30 11:46:11;;;;;;;;;;;13.40;99.90;;;;;;5120101;28;19914;-54
2022/12/30 11:48:45;;;;;;;;;;;13.40;99.90;;;;;;5120426;28;19908;-55
2022/12/30 11:51:16;;;;;;;;;;;13.40;99.90;;;;;;5120400;28;19919;-50
2022/12/30 11:53:41;;;;;;;;;;;13.40;99.90;;;;;;5120193;28;19915;-54
2022/12/30 11:56:07;;;;;;;;;;;13.40;99.90;;;;;;5120056;28;20271;-55
2022/12/30 11:58:37;;;;;;;;;;;13.40;99.90;;;;;;5120166;28;19908;-55
2022/12/30 12:01:07;;;;;;;;;;;13.40;99.90;;;;;;5119853;28;19953;-55
2022/12/30 12:03:33;;;;;;;;;;;13.40;99.90;;;;;;5120011;28;19912;-53
2022/12/30 12:06:06;;;;;;;;;;;13.50;99.90;;;;;;5120324;28;20451;-54
2022/12/30 12:08:38;;;;;;;;;;;13.50;99.90;;;;;;5119794;28;19914;-51
2022/12/30 12:11:13;;;;;;;;;;;13.50;99.90;;;;;;5119774;28;19907;-52
2022/12/30 12:13:39;;;;;;;;;;;13.50;99.90;;;;;;5118906;28;19953;-52
2022/12/30 12:16:05;;;;;;;;;;;13.50;99.90;;;;;;5119660;28;19920;-53
2022/12/30 12:18:42;;;;;;;;;;;13.40;99.90;;;;;;5119565;28;19908;-55
2022/12/30 12:21:27;;;;;;;;;;;13.40;99.90;;;;;;5101226;28;19908;-52
2022/12/30 12:24:07;;;;;;;;;;;13.50;99.90;;;;;;5119585;28;19990;-54
2022/12/30 12:26:38;;;;;;;;;;;13.40;99.90;;;;;;5119710;28;19908;-55
2022/12/30 12:29:04;;;;;;;;;;;13.40;99.90;;;;;;5119377;28;19908;-56
2022/12/30 12:31:42;;;;;;;;;;;13.40;99.90;;;;;;5119586;28;19908;-53
2022/12/30 12:34:26;;;;;;;;;;;13.40;99.90;;;;;;5119365;28;19915;-53
2022/12/30 12:37:10;;;;;;;;;;;13.40;99.90;;;;;;5118964;28;19922;-53
2022/12/30 12:39:55;;;;;;;;;;;13.40;99.90;;;;;;5119395;28;19943;-52
2022/12/30 12:42:22;;;;;;;;;;;13.50;99.90;;;;;;5119340;28;19912;-54
2022/12/30 12:45:06;;;;;;;;;;;13.50;99.90;;;;;;5118892;28;20427;-52
2022/12/30 12:47:32;;;;;;;;;;;13.50;99.90;;;;;;5118765;28;19908;-55
2022/12/30 12:50:15;;;;;;;;;;;13.50;99.90;;;;;;5119066;28;19915;-54
2022/12/30 12:52:54;;;;;;;;;;;13.50;99.90;;;;;;5119282;28;20251;-53
2022/12/30 12:55:20;;;;;;;;;;;13.50;99.90;;;;;;5118999;28;19908;-54
2022/12/30 12:57:46;;;;;;;;;;;13.50;99.90;;;;;;5119281;28;20277;-54
2022/12/30 13:00:17;;;;;;;;;;;13.60;99.90;;;;;;5118826;28;19954;-54
2022/12/30 13:02:59;;;;;;;;;;;13.50;99.90;;;;;;5118765;28;19920;-53
2022/12/30 13:05:48;;;;;;;;;;;13.50;99.90;;;;;;5118942;28;19907;-49
2022/12/30 13:08:13;;;;;;;;;;;13.50;99.90;;;;;;5110133;28;19908;-48
2022/12/30 13:10:45;;;;;;;;;;;13.50;99.90;;;;;;5118743;28;19911;-54
2022/12/30 13:13:34;;;;;;;;;;;13.50;99.90;;;;;;5118595;28;19908;-48
2022/12/30 13:16:03;;;;;;;;;;;13.40;99.90;;;;;;5118192;28;19912;-50
2022/12/30 13:18:31;;;;;;;;;;;13.40;99.90;;;;;;5118702;28;19914;-49
2022/12/30 13:21:04;;;;;;;;;;;13.40;99.90;;;;;;5118643;28;20370;-51
2022/12/30 13:23:33;;;;;;;;;;;13.40;99.90;;;;;;5118895;28;19908;-47
2022/12/30 13:25:59;;;;;;;;;;;13.30;99.90;;;;;;5118718;28;19911;-48
2022/12/30 13:28:27;;;;;;;;;;;13.40;99.90;;;;;;5118531;28;19918;-48
2022/12/30 13:31:11;;;;;;;;;;;13.30;99.90;;;;;;5118701;28;19911;-47
2022/12/30 13:33:55;;;;;;;;;;;13.30;99.90;;;;;;5118443;28;19933;-50
2022/12/30 13:36:26;;;;;;;;;;;13.30;99.90;;;;;;5118347;28;19916;-50
2022/12/30 13:38:55;;;;;;;;;;;13.30;99.90;;;;;;5118602;28;20323;-48
2022/12/30 13:41:21;;;;;;;;;;;13.30;99.90;;;;;;5118550;28;19908;-51
2022/12/30 13:43:52;;;;;;;;;;;13.30;99.90;;;;;;5118505;28;20429;-48
2022/12/30 13:46:20;;;;;;;;;;;13.30;99.90;;;;;;5118283;28;19915;-48
2022/12/30 13:48:50;;;;;;;;;;;13.30;99.90;;;;;;5118343;28;19911;-48
2022/12/30 13:51:18;;;;;;;;;;;13.30;99.90;;;;;;5118469;28;19907;-47
2022/12/30 13:53:45;;;;;;;;;;;13.30;99.90;;;;;;5118720;28;19907;-49
2022/12/30 13:56:13;;;;;;;;;;;13.30;99.90;;;;;;5118163;28;19912;-50
2022/12/30 13:58:46;;;;;;;;;;;13.30;99.90;;;;;;5118149;28;19912;-47
2022/12/30 14:01:18;;;;;;;;;;;13.30;99.90;;;;;;5118342;28;19942;-48
2022/12/30 14:03:44;;;;;;;;;;;13.30;99.90;;;;;;5118305;28;19931;-48
2022/12/30 14:06:16;;;;;;;;;;;13.30;99.90;;;;;;5118397;28;20366;-47
2022/12/30 14:08:46;;;;;;;;;;;13.30;99.90;;;;;;5118075;28;19915;-48
2022/12/30 14:11:13;;;;;;;;;;;13.30;99.90;;;;;;5117926;28;20389;-49
2022/12/30 14:13:40;;;;;;;;;;;13.30;99.90;;;;;;5118018;28;19908;-48
2022/12/30 14:16:25;;;;;;;;;;;13.30;99.90;;;;;;5118156;28;19912;-47
2022/12/30 14:18:51;;;;;;;;;;;13.30;99.90;;;;;;5118047;28;20410;-48
2022/12/30 14:21:18;;;;;;;;;;;13.30;99.90;;;;;;5118356;28;19915;-48
2022/12/30 14:23:51;;;;;;;;;;;13.20;99.90;;;;;;5118195;28;20326;-48
2022/12/30 14:26:17;;;;;;;;;;;13.30;99.90;;;;;;5118062;28;19912;-48
2022/12/30 14:28:43;;;;;;;;;;;13.20;99.90;;;;;;5118157;28;19908;-48
2022/12/30 14:31:41;;;;;;;;;;;13.20;99.90;;;;;;5117944;28;19907;-48
2022/12/30 14:34:20;;;;;;;;;;;13.20;99.90;;;;;;5083812;28;20358;-48
2022/12/30 14:36:54;;;;;;;;;;;13.20;99.90;;;;;;5118268;28;20463;-49
2022/12/30 14:39:21;;;;;;;;;;;13.20;99.90;;;;;;5121740;28;19908;-47
2022/12/30 14:41:47;;;;;;;;;;;13.20;99.90;;;;;;5121599;28;19908;-48
2022/12/30 14:44:13;;;;;;;;;;;13.20;99.90;;;;;;5121793;28;19907;-49
2022/12/30 14:46:41;;;;;;;;;;;13.20;99.90;;;;;;5121344;28;20460;-48
2022/12/30 14:49:21;;;;;;;;;;;13.20;99.90;;;;;;5121705;28;19956;-49
2022/12/30 14:51:59;;;;;;;;;;;13.20;99.90;;;;;;5121560;28;19956;-50
2022/12/30 14:54:33;;;;;;;;;;;13.20;99.90;;;;;;5121158;28;19915;-51
2022/12/30 14:57:02;;;;;;;;;;;13.20;99.90;;;;;;5121396;28;19916;-51
2022/12/30 14:59:28;;;;;;;;;;;13.20;99.90;;;;;;5121433;28;19910;-48
2022/12/30 15:02:12;;;;;;;;;;;13.20;99.90;;;;;;5121303;28;19926;-51
2022/12/30 15:04:38;;;;;;;;;;;13.20;99.90;;;;;;5121203;28;19914;-48
2022/12/30 15:07:04;;;;;;;;;;;13.20;99.90;;;;;;5121331;28;19947;-49
2022/12/30 15:09:29;;;;;;;;;;;13.10;99.90;;;;;;5121304;28;19908;-48
2022/12/30 15:11:58;;;;;;;;;;;13.20;99.90;;;;;;5121032;28;19919;-48
2022/12/30 15:14:23;;;;;;;;;;;13.20;99.90;;;;;;5121278;28;19908;-48
2022/12/30 15:17:27;;;;;;;;;;;13.10;99.90;;;;;;5120871;28;19957;-49
2022/12/30 15:19:53;;;;;;;;;;;13.10;99.90;;;;;;5058178;28;19964;-48
2022/12/30 15:22:27;;;;;;;;;;;13.10;99.90;;;;;;5058499;28;19912;-49
2022/12/30 15:24:52;;;;;;;;;;;13.10;99.90;;;;;;5090473;28;19977;-48